sensor_id;sensor_type;location;lat;lon;timestamp;P1;durP1;ratioP1;P2;durP2;ratioP2
57561;SDS011;43397;51.530;5.974;2023-04-24T00:01:09;20.67;;;12.82;;
57561;SDS011;43397;51.530;5.974;2023-04-24T00:03:35;23.80;;;14.45;;
57561;SDS011;43397;51.530;5.974;2023-04-24T00:06:01;24.25;;;15.75;;
57561;SDS011;43397;51.530;5.974;2023-04-24T00:08:28;25.02;;;16.30;;
57561;SDS011;43397;51.530;5.974;2023-04-24T00:10:54;26.13;;;16.85;;
57561;SDS011;43397;51.530;5.974;2023-04-24T00:13:20;22.70;;;15.48;;
57561;SDS011;43397;51.530;5.974;2023-04-24T00:15:45;24.67;;;16.20;;
57561;SDS011;43397;51.530;5.974;2023-04-24T00:18:11;27.73;;;17.13;;
57561;SDS011;43397;51.530;5.974;2023-04-24T00:20:37;24.17;;;15.55;;
57561;SDS011;43397;51.530;5.974;2023-04-24T00:23:02;26.00;;;16.25;;
57561;SDS011;43397;51.530;5.974;2023-04-24T00:25:29;24.83;;;16.70;;
57561;SDS011;43397;51.530;5.974;2023-04-24T00:27:55;27.70;;;15.20;;
57561;SDS011;43397;51.530;5.974;2023-04-24T00:30:21;25.10;;;15.55;;
57561;SDS011;43397;51.530;5.974;2023-04-24T00:32:46;23.30;;;16.00;;
57561;SDS011;43397;51.530;5.974;2023-04-24T00:35:12;24.30;;;14.35;;
57561;SDS011;43397;51.530;5.974;2023-04-24T00:37:37;21.25;;;13.48;;
57561;SDS011;43397;51.530;5.974;2023-04-24T00:40:04;21.27;;;12.32;;
57561;SDS011;43397;51.530;5.974;2023-04-24T00:42:32;19.70;;;13.07;;
57561;SDS011;43397;51.530;5.974;2023-04-24T00:44:58;17.90;;;10.88;;
57561;SDS011;43397;51.530;5.974;2023-04-24T00:47:24;18.70;;;11.43;;
57561;SDS011;43397;51.530;5.974;2023-04-24T00:49:50;15.82;;;11.02;;
57561;SDS011;43397;51.530;5.974;2023-04-24T00:52:16;17.70;;;10.75;;
57561;SDS011;43397;51.530;5.974;2023-04-24T00:54:42;21.20;;;11.18;;
57561;SDS011;43397;51.530;5.974;2023-04-24T00:57:07;18.20;;;10.93;;
57561;SDS011;43397;51.530;5.974;2023-04-24T00:59:34;18.85;;;13.02;;
57561;SDS011;43397;51.530;5.974;2023-04-24T01:02:00;19.95;;;12.45;;
57561;SDS011;43397;51.530;5.974;2023-04-24T01:04:26;18.20;;;11.30;;
57561;SDS011;43397;51.530;5.974;2023-04-24T01:06:52;19.58;;;12.88;;
57561;SDS011;43397;51.530;5.974;2023-04-24T01:09:19;20.63;;;13.85;;
57561;SDS011;43397;51.530;5.974;2023-04-24T01:11:47;20.77;;;13.55;;
57561;SDS011;43397;51.530;5.974;2023-04-24T01:14:12;20.45;;;13.27;;
57561;SDS011;43397;51.530;5.974;2023-04-24T01:16:40;18.00;;;13.18;;
57561;SDS011;43397;51.530;5.974;2023-04-24T01:19:06;20.27;;;12.60;;
57561;SDS011;43397;51.530;5.974;2023-04-24T01:21:32;20.60;;;13.52;;
57561;SDS011;43397;51.530;5.974;2023-04-24T01:24:02;18.85;;;12.80;;
57561;SDS011;43397;51.530;5.974;2023-04-24T01:26:29;21.20;;;14.30;;
57561;SDS011;43397;51.530;5.974;2023-04-24T01:28:54;25.15;;;14.02;;
57561;SDS011;43397;51.530;5.974;2023-04-24T01:31:21;23.15;;;14.43;;
57561;SDS011;43397;51.530;5.974;2023-04-24T01:33:47;24.83;;;15.02;;
57561;SDS011;43397;51.530;5.974;2023-04-24T01:36:13;21.88;;;15.27;;
57561;SDS011;43397;51.530;5.974;2023-04-24T01:38:39;26.67;;;15.38;;
57561;SDS011;43397;51.530;5.974;2023-04-24T01:41:07;26.20;;;15.48;;
57561;SDS011;43397;51.530;5.974;2023-04-24T01:43:32;22.73;;;16.48;;
57561;SDS011;43397;51.530;5.974;2023-04-24T01:45:58;30.80;;;16.50;;
57561;SDS011;43397;51.530;5.974;2023-04-24T01:48:24;27.95;;;15.07;;
57561;SDS011;43397;51.530;5.974;2023-04-24T01:50:50;32.85;;;17.70;;
57561;SDS011;43397;51.530;5.974;2023-04-24T01:53:15;23.90;;;16.55;;
57561;SDS011;43397;51.530;5.974;2023-04-24T01:55:41;23.65;;;16.33;;
57561;SDS011;43397;51.530;5.974;2023-04-24T01:58:09;25.55;;;15.90;;
57561;SDS011;43397;51.530;5.974;2023-04-24T02:00:34;28.73;;;16.83;;
57561;SDS011;43397;51.530;5.974;2023-04-24T02:03:00;34.83;;;19.38;;
57561;SDS011;43397;51.530;5.974;2023-04-24T02:05:25;26.27;;;16.52;;
57561;SDS011;43397;51.530;5.974;2023-04-24T02:07:51;28.55;;;17.83;;
57561;SDS011;43397;51.530;5.974;2023-04-24T02:10:17;28.52;;;18.63;;
57561;SDS011;43397;51.530;5.974;2023-04-24T02:12:42;31.83;;;19.98;;
57561;SDS011;43397;51.530;5.974;2023-04-24T02:15:10;27.77;;;17.38;;
57561;SDS011;43397;51.530;5.974;2023-04-24T02:17:35;26.85;;;18.05;;
57561;SDS011;43397;51.530;5.974;2023-04-24T02:20:01;30.52;;;19.08;;
57561;SDS011;43397;51.530;5.974;2023-04-24T02:22:27;30.15;;;18.65;;
57561;SDS011;43397;51.530;5.974;2023-04-24T02:24:53;30.20;;;20.35;;
57561;SDS011;43397;51.530;5.974;2023-04-24T02:27:18;38.45;;;20.65;;
57561;SDS011;43397;51.530;5.974;2023-04-24T02:29:44;36.08;;;22.35;;
57561;SDS011;43397;51.530;5.974;2023-04-24T02:32:11;27.10;;;16.60;;
57561;SDS011;43397;51.530;5.974;2023-04-24T02:34:37;31.10;;;18.85;;
57561;SDS011;43397;51.530;5.974;2023-04-24T02:37:02;33.10;;;20.60;;
57561;SDS011;43397;51.530;5.974;2023-04-24T02:39:28;34.47;;;20.92;;
57561;SDS011;43397;51.530;5.974;2023-04-24T02:41:53;32.38;;;20.75;;
57561;SDS011;43397;51.530;5.974;2023-04-24T02:44:19;34.00;;;20.35;;
57561;SDS011;43397;51.530;5.974;2023-04-24T02:46:45;33.55;;;20.00;;
57561;SDS011;43397;51.530;5.974;2023-04-24T02:49:12;33.55;;;21.35;;
57561;SDS011;43397;51.530;5.974;2023-04-24T02:51:37;32.17;;;21.02;;
57561;SDS011;43397;51.530;5.974;2023-04-24T02:54:03;33.67;;;21.05;;
57561;SDS011;43397;51.530;5.974;2023-04-24T02:56:29;29.15;;;18.40;;
57561;SDS011;43397;51.530;5.974;2023-04-24T02:58:54;31.25;;;19.58;;
57561;SDS011;43397;51.530;5.974;2023-04-24T03:01:20;29.83;;;21.50;;
57561;SDS011;43397;51.530;5.974;2023-04-24T03:03:46;28.80;;;19.75;;
57561;SDS011;43397;51.530;5.974;2023-04-24T03:06:12;31.92;;;20.65;;
57561;SDS011;43397;51.530;5.974;2023-04-24T03:08:38;35.75;;;20.98;;
57561;SDS011;43397;51.530;5.974;2023-04-24T03:11:04;30.92;;;20.08;;
57561;SDS011;43397;51.530;5.974;2023-04-24T03:13:29;29.35;;;20.33;;
57561;SDS011;43397;51.530;5.974;2023-04-24T03:15:55;29.23;;;20.30;;
57561;SDS011;43397;51.530;5.974;2023-04-24T03:18:21;31.38;;;18.55;;
57561;SDS011;43397;51.530;5.974;2023-04-24T03:20:46;34.03;;;22.15;;
57561;SDS011;43397;51.530;5.974;2023-04-24T03:23:14;30.00;;;18.90;;
57561;SDS011;43397;51.530;5.974;2023-04-24T03:25:39;31.42;;;19.25;;
57561;SDS011;43397;51.530;5.974;2023-04-24T03:28:05;25.85;;;17.98;;
57561;SDS011;43397;51.530;5.974;2023-04-24T03:30:31;28.88;;;19.27;;
57561;SDS011;43397;51.530;5.974;2023-04-24T03:32:56;27.35;;;17.42;;
57561;SDS011;43397;51.530;5.974;2023-04-24T03:35:22;34.40;;;19.15;;
57561;SDS011;43397;51.530;5.974;2023-04-24T03:37:48;26.33;;;16.30;;
57561;SDS011;43397;51.530;5.974;2023-04-24T03:40:15;27.00;;;16.52;;
57561;SDS011;43397;51.530;5.974;2023-04-24T03:42:41;23.95;;;16.75;;
57561;SDS011;43397;51.530;5.974;2023-04-24T03:45:07;26.65;;;17.63;;
57561;SDS011;43397;51.530;5.974;2023-04-24T03:47:33;22.90;;;16.98;;
57561;SDS011;43397;51.530;5.974;2023-04-24T03:49:59;26.60;;;16.40;;
57561;SDS011;43397;51.530;5.974;2023-04-24T03:52:25;26.35;;;17.63;;
57561;SDS011;43397;51.530;5.974;2023-04-24T03:54:51;26.45;;;17.83;;
57561;SDS011;43397;51.530;5.974;2023-04-24T03:57:18;26.45;;;16.52;;
57561;SDS011;43397;51.530;5.974;2023-04-24T03:59:44;23.42;;;16.60;;
57561;SDS011;43397;51.530;5.974;2023-04-24T04:02:09;22.10;;;14.95;;
57561;SDS011;43397;51.530;5.974;2023-04-24T04:04:35;19.90;;;14.23;;
57561;SDS011;43397;51.530;5.974;2023-04-24T04:07:01;21.45;;;15.27;;
57561;SDS011;43397;51.530;5.974;2023-04-24T04:09:26;20.98;;;13.82;;
57561;SDS011;43397;51.530;5.974;2023-04-24T04:11:52;21.67;;;15.07;;
57561;SDS011;43397;51.530;5.974;2023-04-24T04:14:19;23.85;;;13.20;;
57561;SDS011;43397;51.530;5.974;2023-04-24T04:16:45;20.85;;;14.55;;
57561;SDS011;43397;51.530;5.974;2023-04-24T04:19:10;27.30;;;14.68;;
57561;SDS011;43397;51.530;5.974;2023-04-24T04:21:36;19.60;;;13.93;;
57561;SDS011;43397;51.530;5.974;2023-04-24T04:24:02;21.58;;;14.70;;
57561;SDS011;43397;51.530;5.974;2023-04-24T04:26:27;19.27;;;13.38;;
57561;SDS011;43397;51.530;5.974;2023-04-24T04:28:53;25.02;;;14.15;;
57561;SDS011;43397;51.530;5.974;2023-04-24T04:31:20;19.23;;;13.82;;
57561;SDS011;43397;51.530;5.974;2023-04-24T04:33:46;22.27;;;15.68;;
57561;SDS011;43397;51.530;5.974;2023-04-24T04:36:11;22.25;;;13.50;;
57561;SDS011;43397;51.530;5.974;2023-04-24T04:38:37;22.10;;;14.45;;
57561;SDS011;43397;51.530;5.974;2023-04-24T04:41:03;20.17;;;13.10;;
57561;SDS011;43397;51.530;5.974;2023-04-24T07:20:23;0.50;;;0.50;;
57561;SDS011;43397;51.530;5.974;2023-04-24T07:22:49;0.40;;;0.40;;
57561;SDS011;43397;51.530;5.974;2023-04-24T07:25:15;0.30;;;0.30;;
57561;SDS011;43397;51.530;5.974;2023-04-24T07:27:40;0.80;;;0.80;;
57561;SDS011;43397;51.530;5.974;2023-04-24T07:30:07;0.55;;;0.55;;
57561;SDS011;43397;51.530;5.974;2023-04-24T07:32:33;0.60;;;0.60;;
57561;SDS011;43397;51.530;5.974;2023-04-24T07:34:58;0.40;;;0.40;;
57561;SDS011;43397;51.530;5.974;2023-04-24T07:37:25;0.50;;;0.50;;
57561;SDS011;43397;51.530;5.974;2023-04-24T07:39:51;0.47;;;0.47;;
57561;SDS011;43397;51.530;5.974;2023-04-24T07:42:16;0.95;;;0.60;;
57561;SDS011;43397;51.530;5.974;2023-04-24T07:44:42;0.40;;;0.40;;
57561;SDS011;43397;51.530;5.974;2023-04-24T07:47:08;0.60;;;0.60;;
57561;SDS011;43397;51.530;5.974;2023-04-24T07:49:34;1.38;;;0.98;;
57561;SDS011;43397;51.530;5.974;2023-04-24T07:51:59;0.95;;;0.95;;
57561;SDS011;43397;51.530;5.974;2023-04-24T07:54:26;0.40;;;0.40;;
57561;SDS011;43397;51.530;5.974;2023-04-24T07:56:52;1.65;;;1.13;;
57561;SDS011;43397;51.530;5.974;2023-04-24T07:59:18;0.90;;;0.90;;
57561;SDS011;43397;51.530;5.974;2023-04-24T08:01:43;1.00;;;0.90;;
57561;SDS011;43397;51.530;5.974;2023-04-24T08:04:09;2.95;;;1.38;;
57561;SDS011;43397;51.530;5.974;2023-04-24T08:06:34;0.60;;;0.60;;
57561;SDS011;43397;51.530;5.974;2023-04-24T08:09:00;0.98;;;0.90;;
57561;SDS011;43397;51.530;5.974;2023-04-24T08:11:27;1.60;;;0.93;;
57561;SDS011;43397;51.530;5.974;2023-04-24T08:13:53;1.38;;;1.13;;
57561;SDS011;43397;51.530;5.974;2023-04-24T08:16:18;0.50;;;0.50;;
57561;SDS011;43397;51.530;5.974;2023-04-24T08:18:44;2.45;;;1.13;;
57561;SDS011;43397;51.530;5.974;2023-04-24T08:21:10;1.92;;;1.75;;
57561;SDS011;43397;51.530;5.974;2023-04-24T08:23:35;2.30;;;2.20;;
57561;SDS011;43397;51.530;5.974;2023-04-24T08:26:01;0.85;;;0.85;;
57561;SDS011;43397;51.530;5.974;2023-04-24T08:28:28;4.35;;;1.58;;
57561;SDS011;43397;51.530;5.974;2023-04-24T08:30:54;5.03;;;2.13;;
57561;SDS011;43397;51.530;5.974;2023-04-24T08:33:19;2.00;;;1.23;;
57561;SDS011;43397;51.530;5.974;2023-04-24T08:35:45;1.40;;;1.10;;
57561;SDS011;43397;51.530;5.974;2023-04-24T08:38:11;1.77;;;1.67;;
57561;SDS011;43397;51.530;5.974;2023-04-24T08:40:37;0.40;;;0.40;;
57561;SDS011;43397;51.530;5.974;2023-04-24T08:43:03;1.40;;;1.20;;
57561;SDS011;43397;51.530;5.974;2023-04-24T08:45:30;0.75;;;0.75;;
57561;SDS011;43397;51.530;5.974;2023-04-24T08:47:58;0.50;;;0.50;;
57561;SDS011;43397;51.530;5.974;2023-04-24T08:50:24;2.40;;;1.15;;
57561;SDS011;43397;51.530;5.974;2023-04-24T08:52:51;0.55;;;0.55;;
57561;SDS011;43397;51.530;5.974;2023-04-24T08:55:17;1.02;;;0.95;;
57561;SDS011;43397;51.530;5.974;2023-04-24T08:57:44;0.50;;;0.50;;
57561;SDS011;43397;51.530;5.974;2023-04-24T09:00:10;0.70;;;0.70;;
57561;SDS011;43397;51.530;5.974;2023-04-24T09:02:40;1.33;;;1.23;;
57561;SDS011;43397;51.530;5.974;2023-04-24T09:05:07;0.60;;;0.60;;
57561;SDS011;43397;51.530;5.974;2023-04-24T09:07:34;0.88;;;0.85;;
57561;SDS011;43397;51.530;5.974;2023-04-24T09:10:01;0.40;;;0.40;;
57561;SDS011;43397;51.530;5.974;2023-04-24T09:12:27;3.08;;;0.93;;
57561;SDS011;43397;51.530;5.974;2023-04-24T09:14:52;2.53;;;1.00;;
57561;SDS011;43397;51.530;5.974;2023-04-24T09:17:20;2.65;;;2.55;;
57561;SDS011;43397;51.530;5.974;2023-04-24T09:19:47;0.60;;;0.60;;
57561;SDS011;43397;51.530;5.974;2023-04-24T09:22:12;0.40;;;0.40;;
57561;SDS011;43397;51.530;5.974;2023-04-24T09:24:38;0.50;;;0.50;;
57561;SDS011;43397;51.530;5.974;2023-04-24T09:27:04;2.28;;;1.42;;
57561;SDS011;43397;51.530;5.974;2023-04-24T09:29:29;0.90;;;0.90;;
57561;SDS011;43397;51.530;5.974;2023-04-24T09:31:55;0.45;;;0.45;;
57561;SDS011;43397;51.530;5.974;2023-04-24T09:34:21;0.50;;;0.50;;
57561;SDS011;43397;51.530;5.974;2023-04-24T09:36:49;0.75;;;0.63;;
57561;SDS011;43397;51.530;5.974;2023-04-24T09:39:15;0.57;;;0.57;;
57561;SDS011;43397;51.530;5.974;2023-04-24T09:41:45;0.70;;;0.70;;
57561;SDS011;43397;51.530;5.974;2023-04-24T09:44:12;0.40;;;0.40;;
57561;SDS011;43397;51.530;5.974;2023-04-24T09:46:40;1.40;;;1.13;;
57561;SDS011;43397;51.530;5.974;2023-04-24T09:49:10;2.97;;;1.20;;
57561;SDS011;43397;51.530;5.974;2023-04-24T09:51:38;0.80;;;0.77;;
57561;SDS011;43397;51.530;5.974;2023-04-24T09:54:10;0.70;;;0.70;;
57561;SDS011;43397;51.530;5.974;2023-04-24T09:56:41;0.63;;;0.63;;
57561;SDS011;43397;51.530;5.974;2023-04-24T09:59:07;1.38;;;1.38;;
57561;SDS011;43397;51.530;5.974;2023-04-24T10:01:33;1.88;;;0.95;;
57561;SDS011;43397;51.530;5.974;2023-04-24T10:03:59;0.90;;;0.75;;
57561;SDS011;43397;51.530;5.974;2023-04-24T10:06:29;1.17;;;1.08;;
57561;SDS011;43397;51.530;5.974;2023-04-24T10:08:56;0.47;;;0.47;;
57561;SDS011;43397;51.530;5.974;2023-04-24T10:11:23;3.92;;;1.88;;
57561;SDS011;43397;51.530;5.974;2023-04-24T10:13:50;0.40;;;0.40;;
57561;SDS011;43397;51.530;5.974;2023-04-24T10:16:17;0.50;;;0.50;;
57561;SDS011;43397;51.530;5.974;2023-04-24T10:18:43;0.43;;;0.43;;
57561;SDS011;43397;51.530;5.974;2023-04-24T10:21:09;1.10;;;1.02;;
57561;SDS011;43397;51.530;5.974;2023-04-24T10:23:35;0.60;;;0.60;;
57561;SDS011;43397;51.530;5.974;2023-04-24T10:26:01;1.00;;;0.57;;
57561;SDS011;43397;51.530;5.974;2023-04-24T10:28:29;0.40;;;0.40;;
57561;SDS011;43397;51.530;5.974;2023-04-24T10:30:57;0.70;;;0.70;;
57561;SDS011;43397;51.530;5.974;2023-04-24T10:33:23;0.40;;;0.40;;
57561;SDS011;43397;51.530;5.974;2023-04-24T10:35:50;1.85;;;1.42;;
57561;SDS011;43397;51.530;5.974;2023-04-24T10:38:18;0.40;;;0.40;;
57561;SDS011;43397;51.530;5.974;2023-04-24T10:40:48;1.75;;;1.65;;
57561;SDS011;43397;51.530;5.974;2023-04-24T10:43:15;0.45;;;0.45;;
57561;SDS011;43397;51.530;5.974;2023-04-24T10:45:43;0.88;;;0.88;;
57561;SDS011;43397;51.530;5.974;2023-04-24T10:48:26;7.32;;;0.60;;
57561;SDS011;43397;51.530;5.974;2023-04-24T10:50:52;0.63;;;0.63;;
57561;SDS011;43397;51.530;5.974;2023-04-24T10:53:19;0.38;;;0.38;;
57561;SDS011;43397;51.530;5.974;2023-04-24T10:55:47;0.60;;;0.60;;
57561;SDS011;43397;51.530;5.974;2023-04-24T10:58:13;0.30;;;0.30;;
57561;SDS011;43397;51.530;5.974;2023-04-24T11:00:40;0.68;;;0.68;;
57561;SDS011;43397;51.530;5.974;2023-04-24T11:03:12;0.70;;;0.70;;
57561;SDS011;43397;51.530;5.974;2023-04-24T11:05:49;0.30;;;0.30;;
57561;SDS011;43397;51.530;5.974;2023-04-24T11:08:22;0.40;;;0.40;;
57561;SDS011;43397;51.530;5.974;2023-04-24T11:10:54;0.45;;;0.45;;
57561;SDS011;43397;51.530;5.974;2023-04-24T11:13:23;0.30;;;0.30;;
57561;SDS011;43397;51.530;5.974;2023-04-24T11:18:42;0.30;;;0.30;;
57561;SDS011;43397;51.530;5.974;2023-04-24T11:21:11;0.30;;;0.30;;
57561;SDS011;43397;51.530;5.974;2023-04-24T11:26:09;0.57;;;0.57;;
57561;SDS011;43397;51.530;5.974;2023-04-24T11:28:36;1.90;;;0.77;;
57561;SDS011;43397;51.530;5.974;2023-04-24T11:36:32;1.10;;;1.10;;
57561;SDS011;43397;51.530;5.974;2023-04-24T11:38:58;0.93;;;0.93;;
57561;SDS011;43397;51.530;5.974;2023-04-24T11:41:24;0.32;;;0.32;;
57561;SDS011;43397;51.530;5.974;2023-04-24T11:43:51;0.57;;;0.40;;
57561;SDS011;43397;51.530;5.974;2023-04-24T11:46:20;0.30;;;0.30;;
57561;SDS011;43397;51.530;5.974;2023-04-24T11:48:45;0.40;;;0.40;;
57561;SDS011;43397;51.530;5.974;2023-04-24T11:51:13;0.32;;;0.32;;
57561;SDS011;43397;51.530;5.974;2023-04-24T11:53:38;0.40;;;0.40;;
57561;SDS011;43397;51.530;5.974;2023-04-24T11:56:04;0.30;;;0.30;;
57561;SDS011;43397;51.530;5.974;2023-04-24T11:58:34;0.40;;;0.40;;
57561;SDS011;43397;51.530;5.974;2023-04-24T12:01:00;0.40;;;0.40;;
57561;SDS011;43397;51.530;5.974;2023-04-24T12:03:25;0.98;;;0.98;;
57561;SDS011;43397;51.530;5.974;2023-04-24T12:05:51;0.52;;;0.52;;
57561;SDS011;43397;51.530;5.974;2023-04-24T12:08:28;0.30;;;0.30;;
57561;SDS011;43397;51.530;5.974;2023-04-24T12:10:53;0.30;;;0.30;;
57561;SDS011;43397;51.530;5.974;2023-04-24T12:13:19;0.47;;;0.45;;
57561;SDS011;43397;51.530;5.974;2023-04-24T12:15:45;0.38;;;0.38;;
57561;SDS011;43397;51.530;5.974;2023-04-24T12:18:11;0.75;;;0.50;;
57561;SDS011;43397;51.530;5.974;2023-04-24T12:20:37;0.30;;;0.30;;
57561;SDS011;43397;51.530;5.974;2023-04-24T12:23:03;0.30;;;0.30;;
57561;SDS011;43397;51.530;5.974;2023-04-24T12:25:30;0.40;;;0.40;;
57561;SDS011;43397;51.530;5.974;2023-04-24T12:28:08;0.40;;;0.40;;
57561;SDS011;43397;51.530;5.974;2023-04-24T12:30:38;0.50;;;0.50;;
57561;SDS011;43397;51.530;5.974;2023-04-24T12:33:05;1.52;;;1.42;;
57561;SDS011;43397;51.530;5.974;2023-04-24T12:35:31;0.40;;;0.40;;
57561;SDS011;43397;51.530;5.974;2023-04-24T12:38:04;0.55;;;0.50;;
57561;SDS011;43397;51.530;5.974;2023-04-24T12:40:32;2.15;;;1.63;;
57561;SDS011;43397;51.530;5.974;2023-04-24T12:42:58;0.60;;;0.60;;
57561;SDS011;43397;51.530;5.974;2023-04-24T12:45:23;0.40;;;0.40;;
57561;SDS011;43397;51.530;5.974;2023-04-24T12:47:49;0.40;;;0.40;;
57561;SDS011;43397;51.530;5.974;2023-04-24T12:50:15;0.50;;;0.50;;
57561;SDS011;43397;51.530;5.974;2023-04-24T12:52:41;0.40;;;0.40;;
57561;SDS011;43397;51.530;5.974;2023-04-24T12:55:08;0.57;;;0.43;;
57561;SDS011;43397;51.530;5.974;2023-04-24T12:57:36;1.38;;;1.27;;
57561;SDS011;43397;51.530;5.974;2023-04-24T13:00:05;0.52;;;0.40;;
57561;SDS011;43397;51.530;5.974;2023-04-24T13:02:32;0.30;;;0.30;;
57561;SDS011;43397;51.530;5.974;2023-04-24T13:04:59;0.30;;;0.30;;
57561;SDS011;43397;51.530;5.974;2023-04-24T13:07:25;0.40;;;0.40;;
57561;SDS011;43397;51.530;5.974;2023-04-24T13:09:52;0.40;;;0.40;;
57561;SDS011;43397;51.530;5.974;2023-04-24T13:12:18;0.40;;;0.40;;
57561;SDS011;43397;51.530;5.974;2023-04-24T13:14:46;1.17;;;0.65;;
57561;SDS011;43397;51.530;5.974;2023-04-24T13:17:12;0.32;;;0.32;;
57561;SDS011;43397;51.530;5.974;2023-04-24T13:19:38;0.40;;;0.40;;
57561;SDS011;43397;51.530;5.974;2023-04-24T13:22:06;0.60;;;0.60;;
57561;SDS011;43397;51.530;5.974;2023-04-24T13:24:34;0.52;;;0.52;;
57561;SDS011;43397;51.530;5.974;2023-04-24T13:26:59;0.80;;;0.50;;
57561;SDS011;43397;51.530;5.974;2023-04-24T13:29:25;0.30;;;0.30;;
57561;SDS011;43397;51.530;5.974;2023-04-24T13:31:53;0.30;;;0.30;;
57561;SDS011;43397;51.530;5.974;2023-04-24T13:34:19;0.35;;;0.35;;
57561;SDS011;43397;51.530;5.974;2023-04-24T13:36:45;0.30;;;0.30;;
57561;SDS011;43397;51.530;5.974;2023-04-24T13:39:11;0.35;;;0.35;;
57561;SDS011;43397;51.530;5.974;2023-04-24T13:41:36;3.80;;;0.70;;
57561;SDS011;43397;51.530;5.974;2023-04-24T13:44:02;0.40;;;0.40;;
57561;SDS011;43397;51.530;5.974;2023-04-24T13:46:28;0.30;;;0.30;;
57561;SDS011;43397;51.530;5.974;2023-04-24T13:48:55;0.40;;;0.40;;
57561;SDS011;43397;51.530;5.974;2023-04-24T13:51:21;0.55;;;0.55;;
57561;SDS011;43397;51.530;5.974;2023-04-24T13:53:47;0.40;;;0.40;;
57561;SDS011;43397;51.530;5.974;2023-04-24T13:56:12;0.50;;;0.50;;
57561;SDS011;43397;51.530;5.974;2023-04-24T13:58:38;0.40;;;0.40;;
57561;SDS011;43397;51.530;5.974;2023-04-24T14:01:04;0.40;;;0.40;;
57561;SDS011;43397;51.530;5.974;2023-04-24T14:03:29;0.40;;;0.40;;
57561;SDS011;43397;51.530;5.974;2023-04-24T14:05:56;1.02;;;1.02;;
57561;SDS011;43397;51.530;5.974;2023-04-24T14:08:22;0.45;;;0.45;;
57561;SDS011;43397;51.530;5.974;2023-04-24T14:10:48;0.40;;;0.40;;
57561;SDS011;43397;51.530;5.974;2023-04-24T14:13:13;0.40;;;0.40;;
57561;SDS011;43397;51.530;5.974;2023-04-24T14:15:39;0.77;;;0.77;;
57561;SDS011;43397;51.530;5.974;2023-04-24T14:18:05;0.63;;;0.63;;
57561;SDS011;43397;51.530;5.974;2023-04-24T14:20:30;0.40;;;0.38;;
57561;SDS011;43397;51.530;5.974;2023-04-24T14:22:57;0.30;;;0.30;;
57561;SDS011;43397;51.530;5.974;2023-04-24T14:25:23;0.40;;;0.40;;
57561;SDS011;43397;51.530;5.974;2023-04-24T14:27:49;0.40;;;0.40;;
57561;SDS011;43397;51.530;5.974;2023-04-24T14:30:14;0.40;;;0.40;;
57561;SDS011;43397;51.530;5.974;2023-04-24T14:32:40;0.30;;;0.30;;
57561;SDS011;43397;51.530;5.974;2023-04-24T14:35:06;0.30;;;0.30;;
57561;SDS011;43397;51.530;5.974;2023-04-24T14:37:32;0.50;;;0.50;;
57561;SDS011;43397;51.530;5.974;2023-04-24T14:39:59;0.40;;;0.40;;
57561;SDS011;43397;51.530;5.974;2023-04-24T14:42:25;0.30;;;0.30;;
57561;SDS011;43397;51.530;5.974;2023-04-24T14:44:51;0.50;;;0.50;;
57561;SDS011;43397;51.530;5.974;2023-04-24T14:47:16;0.40;;;0.40;;
57561;SDS011;43397;51.530;5.974;2023-04-24T14:49:42;0.88;;;0.88;;
57561;SDS011;43397;51.530;5.974;2023-04-24T14:52:08;0.90;;;0.57;;
57561;SDS011;43397;51.530;5.974;2023-04-24T14:54:33;0.50;;;0.50;;
57561;SDS011;43397;51.530;5.974;2023-04-24T14:57:00;0.40;;;0.40;;
57561;SDS011;43397;51.530;5.974;2023-04-24T14:59:26;1.20;;;0.85;;
57561;SDS011;43397;51.530;5.974;2023-04-24T15:01:52;0.40;;;0.40;;
57561;SDS011;43397;51.530;5.974;2023-04-24T15:04:18;0.65;;;0.40;;
57561;SDS011;43397;51.530;5.974;2023-04-24T15:06:43;1.35;;;0.68;;
57561;SDS011;43397;51.530;5.974;2023-04-24T15:09:09;0.57;;;0.57;;
57561;SDS011;43397;51.530;5.974;2023-04-24T15:11:35;0.73;;;0.73;;
57561;SDS011;43397;51.530;5.974;2023-04-24T15:14:03;0.30;;;0.30;;
57561;SDS011;43397;51.530;5.974;2023-04-24T15:16:28;0.60;;;0.60;;
57561;SDS011;43397;51.530;5.974;2023-04-24T15:18:54;0.93;;;0.35;;
57561;SDS011;43397;51.530;5.974;2023-04-24T15:21:19;0.30;;;0.30;;
57561;SDS011;43397;51.530;5.974;2023-04-24T15:23:45;0.40;;;0.40;;
57561;SDS011;43397;51.530;5.974;2023-04-24T15:26:11;0.40;;;0.40;;
57561;SDS011;43397;51.530;5.974;2023-04-24T15:28:36;0.30;;;0.30;;
57561;SDS011;43397;51.530;5.974;2023-04-24T15:31:04;0.60;;;0.60;;
57561;SDS011;43397;51.530;5.974;2023-04-24T15:33:29;0.30;;;0.30;;
57561;SDS011;43397;51.530;5.974;2023-04-24T15:35:55;0.40;;;0.40;;
57561;SDS011;43397;51.530;5.974;2023-04-24T15:38:21;0.40;;;0.40;;
57561;SDS011;43397;51.530;5.974;2023-04-24T15:40:46;0.40;;;0.40;;
57561;SDS011;43397;51.530;5.974;2023-04-24T15:43:12;6.47;;;2.55;;
57561;SDS011;43397;51.530;5.974;2023-04-24T15:45:38;5.10;;;2.22;;
57561;SDS011;43397;51.530;5.974;2023-04-24T15:48:05;5.70;;;2.40;;
57561;SDS011;43397;51.530;5.974;2023-04-24T15:50:30;4.88;;;2.58;;
57561;SDS011;43397;51.530;5.974;2023-04-24T15:52:56;4.70;;;2.75;;
57561;SDS011;43397;51.530;5.974;2023-04-24T15:55:22;5.68;;;2.97;;
57561;SDS011;43397;51.530;5.974;2023-04-24T15:57:48;7.05;;;2.88;;
57561;SDS011;43397;51.530;5.974;2023-04-24T16:00:14;4.82;;;2.63;;
57561;SDS011;43397;51.530;5.974;2023-04-24T16:02:40;6.15;;;2.80;;
57561;SDS011;43397;51.530;5.974;2023-04-24T16:05:08;6.47;;;2.78;;
57561;SDS011;43397;51.530;5.974;2023-04-24T16:07:34;6.75;;;2.95;;
57561;SDS011;43397;51.530;5.974;2023-04-24T16:09:59;5.85;;;2.30;;
57561;SDS011;43397;51.530;5.974;2023-04-24T16:12:25;8.35;;;2.78;;
57561;SDS011;43397;51.530;5.974;2023-04-24T16:14:51;7.35;;;3.15;;
57561;SDS011;43397;51.530;5.974;2023-04-24T16:17:16;6.55;;;3.22;;
57561;SDS011;43397;51.530;5.974;2023-04-24T16:19:42;6.60;;;2.78;;
57561;SDS011;43397;51.530;5.974;2023-04-24T16:22:09;7.60;;;3.20;;
57561;SDS011;43397;51.530;5.974;2023-04-24T16:24:35;8.77;;;2.80;;
57561;SDS011;43397;51.530;5.974;2023-04-24T16:27:00;9.32;;;3.90;;
57561;SDS011;43397;51.530;5.974;2023-04-24T16:29:26;9.57;;;4.22;;
57561;SDS011;43397;51.530;5.974;2023-04-24T16:31:52;7.22;;;3.85;;
57561;SDS011;43397;51.530;5.974;2023-04-24T16:34:19;10.82;;;4.03;;
57561;SDS011;43397;51.530;5.974;2023-04-24T16:36:45;8.50;;;3.63;;
57561;SDS011;43397;51.530;5.974;2023-04-24T16:39:12;9.13;;;4.03;;
57561;SDS011;43397;51.530;5.974;2023-04-24T16:41:38;10.15;;;3.92;;
57561;SDS011;43397;51.530;5.974;2023-04-24T16:44:03;11.70;;;3.83;;
57561;SDS011;43397;51.530;5.974;2023-04-24T16:46:29;10.82;;;4.32;;
57561;SDS011;43397;51.530;5.974;2023-04-24T16:48:55;9.80;;;4.95;;
57561;SDS011;43397;51.530;5.974;2023-04-24T16:51:22;9.15;;;3.95;;
57561;SDS011;43397;51.530;5.974;2023-04-24T16:53:47;11.05;;;4.60;;
57561;SDS011;43397;51.530;5.974;2023-04-24T16:56:14;9.85;;;4.43;;
57561;SDS011;43397;51.530;5.974;2023-04-24T16:58:40;7.80;;;4.18;;
57561;SDS011;43397;51.530;5.974;2023-04-24T17:01:06;9.45;;;4.47;;
57561;SDS011;43397;51.530;5.974;2023-04-24T17:03:31;11.23;;;4.40;;
57561;SDS011;43397;51.530;5.974;2023-04-24T17:05:57;8.50;;;3.65;;
57561;SDS011;43397;51.530;5.974;2023-04-24T17:08:23;10.30;;;4.40;;
57561;SDS011;43397;51.530;5.974;2023-04-24T17:10:48;15.65;;;4.40;;
57561;SDS011;43397;51.530;5.974;2023-04-24T17:13:15;10.35;;;4.68;;
57561;SDS011;43397;51.530;5.974;2023-04-24T17:15:41;8.63;;;4.32;;
57561;SDS011;43397;51.530;5.974;2023-04-24T17:18:07;12.63;;;5.00;;
57561;SDS011;43397;51.530;5.974;2023-04-24T17:20:32;10.52;;;5.10;;